createdAt,value
2018-11-22T12:20:35.674Z,3.12
2018-11-22T12:25:38.345Z,3.17
2018-11-22T12:30:41.009Z,3.19
2018-11-22T12:35:49.475Z,3.14
2018-11-22T12:40:52.255Z,3.15
2018-11-22T12:45:54.935Z,3.18
2018-11-22T12:50:57.660Z,3.17
2018-11-22T12:56:00.805Z,3.17
2018-11-22T13:01:04.198Z,3.18
2018-11-22T13:06:06.922Z,3.15
2018-11-22T13:11:09.593Z,3.16
2018-11-22T13:16:12.230Z,3.19
2018-11-22T13:21:14.847Z,3.19
2018-11-22T13:26:17.686Z,3.10
2018-11-22T13:31:20.347Z,3.08
2018-11-22T13:36:23.010Z,3.05
2018-11-22T13:41:25.625Z,3.04
2018-11-22T13:46:28.296Z,3.05
2018-11-22T13:51:31.006Z,3.01
2018-11-22T13:56:33.765Z,2.97
2018-11-22T14:01:36.400Z,2.99
2018-11-22T14:06:39.032Z,2.99
2018-11-22T14:11:41.679Z,3.01
2018-11-22T14:16:44.370Z,2.98
2018-11-22T14:21:47.146Z,2.95
2018-11-22T14:26:49.966Z,2.94
2018-11-22T14:31:52.703Z,2.96
2018-11-22T14:36:55.506Z,2.99
2018-11-22T14:41:58.182Z,2.92
2018-11-22T14:47:00.995Z,2.89
2018-11-22T14:52:03.840Z,2.91
2018-11-22T14:57:07.582Z,2.88
2018-11-22T15:02:10.224Z,2.87
2018-11-22T15:07:12.916Z,2.87
2018-11-22T15:12:15.649Z,2.85
2018-11-22T15:17:18.275Z,2.84
2018-11-22T15:22:20.910Z,2.83
2018-11-22T15:27:23.647Z,2.81
2018-11-22T15:32:26.311Z,2.83
2018-11-22T15:37:29.034Z,2.85
2018-11-22T15:42:31.642Z,2.77
2018-11-22T15:47:34.290Z,2.77
2018-11-22T15:52:37.230Z,2.76
2018-11-22T15:57:40.728Z,2.79
2018-11-22T16:02:44.262Z,2.84
2018-11-22T16:07:46.910Z,2.83
2018-11-22T16:12:51.798Z,2.86
2018-11-22T16:17:54.503Z,2.81
2018-11-22T16:22:57.256Z,2.79
2018-11-22T16:27:59.917Z,2.68
2018-11-22T16:33:02.661Z,2.68
2018-11-22T16:38:05.666Z,2.61
2018-11-22T16:43:08.324Z,2.56
2018-11-22T16:48:12.181Z,2.58
2018-11-22T16:53:14.824Z,2.61
2018-11-22T16:58:17.462Z,2.63
2018-11-22T17:03:20.107Z,2.58
2018-11-22T17:08:22.745Z,2.56
2018-11-22T17:13:25.379Z,2.57
2018-11-22T17:18:28.001Z,2.58
2018-11-22T17:23:30.612Z,2.60
2018-11-22T17:28:33.257Z,2.57
2018-11-22T17:33:35.990Z,2.50
2018-11-22T17:38:38.634Z,2.54
2018-11-22T17:43:41.310Z,2.57
2018-11-22T17:48:43.959Z,2.50
2018-11-22T17:53:46.567Z,2.47
2018-11-22T17:58:49.281Z,2.47
2018-11-22T18:03:52.015Z,2.46
2018-11-22T18:08:54.721Z,2.51
2018-11-22T18:13:57.338Z,2.51
2018-11-22T18:18:59.938Z,2.51
2018-11-22T18:24:02.582Z,2.48
2018-11-22T18:29:05.382Z,2.52
2018-11-22T18:34:08.015Z,2.54
2018-11-22T18:39:10.614Z,2.45
2018-11-22T18:44:13.776Z,2.36
2018-11-22T18:49:16.410Z,2.27
2018-11-22T18:54:19.025Z,2.25
2018-11-22T18:59:21.602Z,2.33
2018-11-22T19:04:24.307Z,2.23
2018-11-22T19:09:26.888Z,2.23
2018-11-22T19:14:29.503Z,2.20
2018-11-22T19:19:32.147Z,2.20
2018-11-22T19:24:34.834Z,2.21
2018-11-22T19:29:37.441Z,2.23
2018-11-22T19:34:40.083Z,2.20
2018-11-22T19:39:42.937Z,2.16
2018-11-22T19:44:45.644Z,2.17
2018-11-22T19:49:48.295Z,2.13
2018-11-22T19:54:51.074Z,2.12
2018-11-22T19:59:53.815Z,2.10
2018-11-22T20:04:56.470Z,2.09
2018-11-22T20:09:59.305Z,2.06
2018-11-22T20:15:03.490Z,2.04
2018-11-22T20:20:08.366Z,1.99
2018-11-22T20:25:10.986Z,1.98
2018-11-22T20:30:17.024Z,2.04
2018-11-22T20:35:20.434Z,2.06
2018-11-22T20:40:24.326Z,2.03
2018-11-22T20:45:27.806Z,2.04
2018-11-22T20:50:31.116Z,2.03
2018-11-22T20:55:35.130Z,2.06
2018-11-22T21:00:39.258Z,2.12
2018-11-22T21:05:41.819Z,2.12
2018-11-22T21:10:44.429Z,2.03
2018-11-22T21:15:47.042Z,1.97
2018-11-22T21:20:49.654Z,1.99
2018-11-22T21:25:52.323Z,2.09
2018-11-22T21:30:54.941Z,2.11
2018-11-22T21:35:58.444Z,2.07
2018-11-22T21:41:01.100Z,2.06
2018-11-22T21:46:04.056Z,2.01
2018-11-22T21:51:06.677Z,2.01
2018-11-22T21:56:09.259Z,2.03
2018-11-22T22:01:11.860Z,2.08
2018-11-22T22:06:14.465Z,2.08
2018-11-22T22:11:17.041Z,2.05
2018-11-22T22:16:19.759Z,2.12
2018-11-22T22:21:22.488Z,2.10
2018-11-22T22:26:25.355Z,2.06
2018-11-22T22:31:27.947Z,2.03
2018-11-22T22:36:30.554Z,2.07
2018-11-22T22:41:33.147Z,1.98
2018-11-22T22:46:35.911Z,1.92
2018-11-22T22:51:38.663Z,2.00
2018-11-22T22:56:41.539Z,2.07
2018-11-22T23:01:44.380Z,2.08
2018-11-22T23:06:47.182Z,2.10
2018-11-22T23:11:49.946Z,2.14
2018-11-22T23:16:52.727Z,2.10
2018-11-22T23:21:55.380Z,2.06
2018-11-22T23:26:58.031Z,2.08
2018-11-22T23:32:00.830Z,2.10
2018-11-22T23:42:02.245Z,2.14
2018-11-22T23:47:05.098Z,2.17
2018-11-22T23:52:07.752Z,2.20
2018-11-22T23:57:10.327Z,2.20
